Tropical Cyclones
[Index]
Main Index Home Page Stock Weather Photos Extreme Storms Discussion Storm News and Storm Chasing Reports Tropical Cyclones / Hurricanes / Typhoons Weather Data and Links Wild Fires / Bushfires Weather Observation Techniques Weather Picture Catalogue Tornado Pictures and Reports Stock Video Footage and DVDs for sale
Season 2013-2014 Tropical Cyclone BRUCE Track Map
Season 2013-2014 Summaries (Operational Data): [AU] [SIO] [SPAC] [SH]
<<- Previous TC | 2013-2014 Season | Next TC ->>

click for intensity scale information  Lat/long Grid: Show Hide

 Date Labels: Show Hide

Operational Tropical Cyclone Data : JTWC Advisories

Name: BRUCE
Number: 1404

14 Dec 2013 18:00 UTC to 26 Dec 2013 12:00 UTC

    date/time    lat    long     hPa   cat  kts
2013-12-14 18    7.4   102.5    1010         15          
2013-12-15 00    7.6   101.5    1010         15          
2013-12-15 06    7.8   100.6    1009         15          
2013-12-15 12    7.9    99.7    1008         15          
2013-12-15 18    7.7    99.0    1007         15          
2013-12-16 00    7.1    98.8    1007         15          
2013-12-16 06    7.0    98.3    1007         20          
2013-12-16 12    7.2    98.0    1004         25          
2013-12-16 18    7.5    97.9    1000         30          
2013-12-17 00    8.3    97.8    1000         30          
2013-12-17 06    8.9    97.5    1000         30          
2013-12-17 12    9.3    97.2    1000         30          
2013-12-17 18    9.6    96.8     996    1    35          
2013-12-18 00   10.3    96.2     989    1    45          
2013-12-18 06   10.9    95.4     985    2    50          
2013-12-18 12   11.3    94.5     982    2    55          
2013-12-18 18   11.7    93.7     978    2    60          
2013-12-19 00   11.9    92.9     970    3    70          
2013-12-19 06   12.2    92.1     967    3    75          
2013-12-19 12   12.6    91.2     956    4    90          
2013-12-19 15   12.8    90.8     948    4   100          
2013-12-19 18   13.0    90.3     944    4   105          
2013-12-20 00   13.2    89.5     937    5   115          
2013-12-20 06   13.6    88.4     929    5   125          
2013-12-20 12   13.9    87.3     929    5   125          
2013-12-20 18   14.1    86.3     926    5   130          
2013-12-21 00   14.5    85.0     922    5   135          
2013-12-21 06   15.0    83.8     922    5   135          
2013-12-21 12   15.5    82.8     922    5   135          
2013-12-21 18   16.3    81.0     918    5   140          
2013-12-22 00   16.9    80.0     918    5   140          
2013-12-22 06   17.9    78.8     926    5   130          
2013-12-22 12   19.0    78.1     941    5   110          
2013-12-22 18   20.1    77.8     944    4   105          
2013-12-23 00   21.6    77.7     944    4   105          
2013-12-23 06   22.9    77.9     952    4    95          
2013-12-23 12   25.0    78.2     963    3    80          
2013-12-23 18   26.6    78.6     967    3    75          
2013-12-24 00   28.4    79.2     974    3    65          
2013-12-24 06   30.2    81.0     989    1    45          
2013-12-24 12   31.6    83.5     993    1    40          
2013-12-24 18   32.1    86.7     993    1    40          
2013-12-25 00   32.6    89.2     993    1    40          
2013-12-25 06   32.2    93.7     996    1    35          
2013-12-25 12   31.0    96.3     996    1    35          
2013-12-25 18   32.9   100.5                             
2013-12-26 00   33.9   103.1                             
2013-12-26 06   34.7   107.4                             
2013-12-26 12   35.0   110.4                             
Winds are 10-min average.

Tropical cyclone tracks developed by Michael Bath using operational warnings and advisories and Google Maps.


[Australian Severe Weather index] [Copyright Notice] [Email Contacts] [Search This Site] [Privacy Policy]
Document: tropical_cyclone_bruce.htm Updated: 2 May 2017